Time,TemperatureF,DewpointF,PressureIn,WindDirection,WindDirectionDegrees,WindSpeedMPH,WindSpeedGustMPH,Humidity,HourlyPrecipIn,Conditions,Clouds,dailyrainin,SolarRadiationWatts/m^2,SoftwareType,DateUTC
2013-02-23 00:01:00,30.0,28.0,-100.00,South,186,3.0,7.0,94,0.00,,,0.10,0.000000,,2013-02-23 07:01:00,
2013-02-23 00:11:00,30.0,28.0,-100.00,South,186,3.0,7.0,94,0.00,,,0.10,0.000000,,2013-02-23 07:11:00,
2013-02-23 00:42:00,30.0,28.0,-100.00,SE,124,2.0,7.0,93,0.00,,,-99.99,0.000000,,2013-02-23 07:42:00,
2013-02-23 00:52:00,30.0,28.0,-100.00,SE,124,2.0,7.0,93,0.00,,,-99.99,0.000000,,2013-02-23 07:52:00,
2013-02-23 01:01:00,30.0,28.0,-100.00,SE,124,2.0,7.0,93,0.00,,,-99.99,0.000000,,2013-02-23 08:01:00,
2013-02-23 01:11:00,30.0,28.0,-100.00,SE,124,2.0,7.0,93,0.00,,,-99.99,0.000000,,2013-02-23 08:11:00,
2013-02-23 01:42:00,31.0,29.0,-100.00,SSE,156,5.0,12.0,94,0.00,,,0.10,0.000000,,2013-02-23 08:42:00,
2013-02-23 01:52:00,31.0,29.0,-100.00,SSE,156,5.0,12.0,94,0.00,,,0.10,0.000000,,2013-02-23 08:52:00,
2013-02-23 02:01:00,31.0,29.0,-100.00,SSE,156,5.0,12.0,94,0.00,,,0.10,0.000000,,2013-02-23 09:01:00,
2013-02-23 02:11:00,31.0,29.0,-100.00,SSE,156,5.0,12.0,94,0.00,,,0.10,0.000000,,2013-02-23 09:11:00,
2013-02-23 02:32:00,32.0,28.0,-100.00,SSE,167,6.0,13.0,84,0.00,,,0.10,0.000000,,2013-02-23 09:32:00,
2013-02-23 02:42:00,32.0,28.0,-100.00,SSE,167,6.0,13.0,84,0.00,,,0.10,0.000000,,2013-02-23 09:42:00,
2013-02-23 02:52:00,32.0,28.0,-100.00,SSE,167,6.0,13.0,84,0.00,,,0.10,0.000000,,2013-02-23 09:52:00,
2013-02-23 03:01:00,32.0,28.0,-100.00,SSE,167,6.0,13.0,84,0.00,,,0.10,0.000000,,2013-02-23 10:01:00,
2013-02-23 03:11:00,32.0,28.0,-100.00,SSE,167,6.0,13.0,84,0.00,,,0.10,0.000000,,2013-02-23 10:11:00,
2013-02-23 03:42:00,30.0,22.0,-100.00,SSE,168,5.0,13.0,73,0.00,,,0.10,0.000000,,2013-02-23 10:42:00,
2013-02-23 03:52:00,30.0,22.0,-100.00,SSE,168,5.0,13.0,73,0.00,,,0.10,0.000000,,2013-02-23 10:52:00,
2013-02-23 04:02:00,30.0,22.0,-100.00,SSE,168,5.0,13.0,73,0.00,,,0.10,0.000000,,2013-02-23 11:02:00,
2013-02-23 04:11:00,30.0,22.0,-100.00,SSE,168,5.0,13.0,73,0.00,,,0.10,0.000000,,2013-02-23 11:11:00,
2013-02-23 04:42:00,29.0,24.0,-100.00,WSW,242,3.0,16.0,81,0.00,,,0.10,0.000000,,2013-02-23 11:42:00,
2013-02-23 04:52:00,29.0,24.0,-100.00,WSW,242,3.0,16.0,81,0.00,,,0.10,0.000000,,2013-02-23 11:52:00,
2013-02-23 05:01:00,29.0,24.0,-100.00,WSW,242,3.0,16.0,81,0.00,,,0.10,0.000000,,2013-02-23 12:01:00,
2013-02-23 05:11:00,29.0,24.0,-100.00,WSW,242,3.0,16.0,81,0.00,,,0.10,0.000000,,2013-02-23 12:11:00,
2013-02-23 05:32:00,27.0,19.0,-100.00,SSW,206,3.0,14.0,72,0.00,,,0.10,0.000000,,2013-02-23 12:32:00,
2013-02-23 05:42:00,27.0,19.0,-100.00,SSW,206,3.0,14.0,72,0.00,,,0.10,0.000000,,2013-02-23 12:42:00,
2013-02-23 05:52:00,27.0,19.0,-100.00,SSW,206,3.0,14.0,72,0.00,,,0.10,0.000000,,2013-02-23 12:52:00,
2013-02-23 06:01:00,27.0,19.0,-100.00,SSW,206,3.0,14.0,72,0.00,,,0.10,0.000000,,2013-02-23 13:01:00,
2013-02-23 06:11:00,27.0,19.0,-100.00,SSW,206,3.0,14.0,72,0.00,,,0.10,0.000000,,2013-02-23 13:11:00,
2013-02-23 06:42:00,27.0,19.0,-100.00,SW,219,8.0,13.0,72,0.00,,,0.10,0.000000,,2013-02-23 13:42:00,
2013-02-23 06:52:00,27.0,19.0,-100.00,SW,219,8.0,13.0,72,0.00,,,0.10,0.000000,,2013-02-23 13:52:00,
2013-02-23 07:02:00,27.0,19.0,-100.00,SW,219,8.0,13.0,72,0.00,,,0.10,0.000000,,2013-02-23 14:02:00,
2013-02-23 07:11:00,27.0,19.0,-100.00,SW,219,8.0,13.0,72,0.00,,,0.10,0.000000,,2013-02-23 14:11:00,
2013-02-23 07:42:00,27.0,18.0,-100.00,SW,219,8.0,19.0,69,0.00,,,-99.99,0.000000,,2013-02-23 14:42:00,
2013-02-23 07:52:00,27.0,18.0,-100.00,SW,219,8.0,19.0,69,0.00,,,-99.99,0.000000,,2013-02-23 14:52:00,
2013-02-23 08:01:00,27.0,18.0,-100.00,SW,219,8.0,19.0,69,0.00,,,-99.99,0.000000,,2013-02-23 15:01:00,
2013-02-23 08:11:00,27.0,18.0,-100.00,SW,219,8.0,19.0,69,0.00,,,-99.99,0.000000,,2013-02-23 15:11:00,
2013-02-23 08:32:00,26.0,19.0,-100.00,SSW,209,5.0,12.0,74,0.00,,,0.10,4.000000,,2013-02-23 15:32:00,
2013-02-23 08:42:00,26.0,19.0,-100.00,SSW,209,5.0,12.0,74,0.00,,,0.10,4.000000,,2013-02-23 15:42:00,
2013-02-23 08:52:00,26.0,19.0,-100.00,SSW,209,5.0,12.0,74,0.00,,,0.10,4.000000,,2013-02-23 15:52:00,
2013-02-23 09:01:00,26.0,19.0,-100.00,SSW,209,5.0,12.0,74,0.00,,,0.10,4.000000,,2013-02-23 16:01:00,
2013-02-23 09:11:00,26.0,19.0,-100.00,SSW,209,5.0,12.0,74,0.00,,,0.10,4.000000,,2013-02-23 16:11:00,
2013-02-23 09:42:00,27.0,18.0,-100.00,SW,222,6.0,16.0,68,0.00,,,0.10,19.000000,,2013-02-23 16:42:00,
2013-02-23 09:52:00,27.0,18.0,-100.00,SW,222,6.0,16.0,68,0.00,,,0.10,19.000000,,2013-02-23 16:52:00,
2013-02-23 10:01:00,27.0,18.0,-100.00,SW,222,6.0,16.0,68,0.00,,,0.10,19.000000,,2013-02-23 17:01:00,
2013-02-23 10:11:00,27.0,18.0,-100.00,SW,222,6.0,16.0,68,0.00,,,0.10,19.000000,,2013-02-23 17:11:00,
2013-02-23 10:42:00,28.0,17.0,-100.00,SSW,208,4.0,14.0,64,0.00,,,0.10,29.000000,,2013-02-23 17:42:00,
2013-02-23 10:52:00,28.0,17.0,-100.00,SSW,208,4.0,14.0,64,0.00,,,0.10,29.000000,,2013-02-23 17:52:00,
2013-02-23 11:01:00,28.0,17.0,-100.00,SSW,208,4.0,14.0,64,0.00,,,0.10,29.000000,,2013-02-23 18:01:00,
2013-02-23 11:12:00,28.0,17.0,-100.00,SSW,208,4.0,14.0,64,0.00,,,0.10,29.000000,,2013-02-23 18:12:00,
2013-02-23 11:32:00,29.0,18.0,-100.00,SSW,212,4.0,8.0,62,0.00,,,0.03,40.000000,,2013-02-23 18:32:00,
2013-02-23 11:42:00,29.0,18.0,-100.00,SSW,212,4.0,8.0,62,0.00,,,0.03,40.000000,,2013-02-23 18:42:00,
2013-02-23 11:52:00,29.0,18.0,-100.00,SSW,212,4.0,8.0,62,0.00,,,0.03,40.000000,,2013-02-23 18:52:00,
2013-02-23 12:01:00,29.0,18.0,-100.00,SSW,212,4.0,8.0,62,0.00,,,0.03,40.000000,,2013-02-23 19:01:00,
2013-02-23 12:11:00,29.0,18.0,-100.00,SSW,212,4.0,8.0,62,0.00,,,0.03,40.000000,,2013-02-23 19:11:00,
2013-02-23 12:42:00,31.0,18.0,-100.00,SW,229,5.0,11.0,59,0.04,,,0.05,68.000000,,2013-02-23 19:42:00,
2013-02-23 12:52:00,31.0,18.0,-100.00,SW,229,5.0,11.0,59,0.04,,,0.05,68.000000,,2013-02-23 19:52:00,
2013-02-23 13:01:00,31.0,18.0,-100.00,SW,229,5.0,11.0,59,0.04,,,0.05,68.000000,,2013-02-23 20:01:00,
2013-02-23 13:11:00,31.0,18.0,-100.00,SW,229,5.0,11.0,59,0.04,,,0.05,68.000000,,2013-02-23 20:11:00,
2013-02-23 13:32:00,34.0,19.0,-100.00,West,262,7.0,13.0,54,0.03,,,0.08,116.000000,,2013-02-23 20:32:00,
2013-02-23 13:42:00,34.0,19.0,-100.00,West,262,7.0,13.0,54,0.03,,,0.08,116.000000,,2013-02-23 20:42:00,
2013-02-23 13:52:00,34.0,19.0,-100.00,West,262,7.0,13.0,54,0.03,,,0.08,116.000000,,2013-02-23 20:52:00,
2013-02-23 14:01:00,34.0,19.0,-100.00,West,262,7.0,13.0,54,0.03,,,0.08,116.000000,,2013-02-23 21:01:00,
2013-02-23 14:11:00,34.0,19.0,-100.00,West,262,7.0,13.0,54,0.03,,,0.08,116.000000,,2013-02-23 21:11:00,
2013-02-23 14:42:00,33.0,18.0,-100.00,West,276,6.0,19.0,53,0.00,,,0.08,181.000000,,2013-02-23 21:42:00,
2013-02-23 14:52:00,33.0,18.0,-100.00,West,276,6.0,19.0,53,0.00,,,0.08,181.000000,,2013-02-23 21:52:00,
2013-02-23 15:01:00,33.0,18.0,-100.00,West,276,6.0,19.0,53,0.00,,,0.08,181.000000,,2013-02-23 22:01:00,
2013-02-23 15:11:00,33.0,18.0,-100.00,West,276,6.0,19.0,53,0.00,,,0.08,181.000000,,2013-02-23 22:11:00,
2013-02-23 15:42:00,35.0,19.0,-100.00,WSW,252,4.0,12.0,52,0.00,,,0.08,235.000000,,2013-02-23 22:42:00,
2013-02-23 15:52:00,35.0,19.0,-100.00,WSW,252,4.0,12.0,52,0.00,,,0.08,235.000000,,2013-02-23 22:52:00,
2013-02-23 16:01:00,35.0,19.0,-100.00,WSW,252,4.0,12.0,52,0.00,,,0.08,235.000000,,2013-02-23 23:01:00,
2013-02-23 16:11:00,35.0,19.0,-100.00,WSW,252,4.0,12.0,52,0.00,,,0.08,235.000000,,2013-02-23 23:11:00,
2013-02-23 16:42:00,32.0,18.0,-100.00,WSW,246,6.0,14.0,55,0.00,,,0.08,193.000000,,2013-02-23 23:42:00,
2013-02-23 16:52:00,32.0,18.0,-100.00,WSW,246,6.0,14.0,55,0.00,,,0.08,193.000000,,2013-02-23 23:52:00,
2013-02-23 17:01:00,32.0,18.0,-100.00,WSW,246,6.0,14.0,55,0.00,,,0.08,193.000000,,2013-02-24 00:01:00,
2013-02-23 17:11:00,32.0,18.0,-100.00,WSW,246,6.0,14.0,55,0.00,,,0.08,193.000000,,2013-02-24 00:11:00,
2013-02-23 17:32:00,34.0,17.0,-100.00,WNW,292,6.0,16.0,49,0.00,,,0.07,140.000000,,2013-02-24 00:32:00,
2013-02-23 17:42:00,34.0,17.0,-100.00,WNW,292,6.0,16.0,49,0.00,,,0.07,140.000000,,2013-02-24 00:42:00,
2013-02-23 17:52:00,34.0,17.0,-100.00,WNW,292,6.0,16.0,49,0.00,,,0.07,140.000000,,2013-02-24 00:52:00,
2013-02-23 18:01:00,34.0,17.0,-100.00,WNW,292,6.0,16.0,49,0.00,,,0.07,140.000000,,2013-02-24 01:01:00,
2013-02-23 18:11:00,34.0,17.0,-100.00,WNW,292,6.0,16.0,49,0.00,,,0.07,140.000000,,2013-02-24 01:11:00,
2013-02-23 18:32:00,30.0,17.0,-100.00,WSW,249,5.0,12.0,57,0.00,,,0.07,32.000000,,2013-02-24 01:32:00,
2013-02-23 18:42:00,30.0,17.0,-100.00,WSW,249,5.0,12.0,57,0.00,,,0.07,32.000000,,2013-02-24 01:42:00,
2013-02-23 18:52:00,30.0,17.0,-100.00,WSW,249,5.0,12.0,57,0.00,,,0.07,32.000000,,2013-02-24 01:52:00,
2013-02-23 19:01:00,30.0,17.0,-100.00,WSW,249,5.0,12.0,57,0.00,,,0.07,32.000000,,2013-02-24 02:01:00,
2013-02-23 19:11:00,30.0,17.0,-100.00,WSW,249,5.0,12.0,57,0.00,,,0.07,32.000000,,2013-02-24 02:11:00,
2013-02-23 19:42:00,28.0,16.0,-100.00,West,260,3.0,10.0,61,0.00,,,0.07,0.000000,,2013-02-24 02:42:00,
2013-02-23 19:52:00,28.0,16.0,-100.00,West,260,3.0,10.0,61,0.00,,,0.07,0.000000,,2013-02-24 02:52:00,
2013-02-23 20:01:00,28.0,16.0,-100.00,West,260,3.0,10.0,61,0.00,,,0.07,0.000000,,2013-02-24 03:01:00,
2013-02-23 20:11:00,28.0,16.0,-100.00,West,260,3.0,10.0,61,0.00,,,0.07,0.000000,,2013-02-24 03:11:00,
2013-02-23 20:42:00,23.0,16.0,-100.00,NNE,22,2.0,5.0,73,0.00,,,0.07,0.000000,,2013-02-24 03:42:00,
2013-02-23 20:52:00,23.0,16.0,-100.00,NNE,22,2.0,5.0,73,0.00,,,0.07,0.000000,,2013-02-24 03:52:00,
2013-02-23 21:01:00,23.0,16.0,-100.00,NNE,22,2.0,5.0,73,0.00,,,0.07,0.000000,,2013-02-24 04:01:00,
2013-02-23 21:11:00,23.0,16.0,-100.00,NNE,22,2.0,5.0,73,0.00,,,0.07,0.000000,,2013-02-24 04:11:00,
2013-02-23 21:32:00,22.0,16.0,-100.00,NNW,332,2.0,3.0,79,0.00,,,0.07,0.000000,,2013-02-24 04:32:00,
2013-02-23 21:42:00,22.0,16.0,-100.00,NNW,332,2.0,3.0,79,0.00,,,0.07,0.000000,,2013-02-24 04:42:00,
2013-02-23 21:52:00,22.0,16.0,-100.00,NNW,332,2.0,3.0,79,0.00,,,0.07,0.000000,,2013-02-24 04:52:00,
2013-02-23 22:01:00,22.0,16.0,-100.00,NNW,332,2.0,3.0,79,0.00,,,0.07,0.000000,,2013-02-24 05:01:00,
2013-02-23 22:11:00,22.0,16.0,-100.00,NNW,332,2.0,3.0,79,0.00,,,0.07,0.000000,,2013-02-24 05:11:00,
2013-02-23 22:32:00,19.0,15.0,-100.00,NW,325,2.0,4.0,83,0.00,,,-99.99,0.000000,,2013-02-24 05:32:00,
2013-02-23 22:42:00,19.0,15.0,-100.00,NW,325,2.0,4.0,83,0.00,,,-99.99,0.000000,,2013-02-24 05:42:00,
2013-02-23 22:52:00,19.0,15.0,-100.00,NW,325,2.0,4.0,83,0.00,,,-99.99,0.000000,,2013-02-24 05:52:00,
2013-02-23 23:01:00,19.0,15.0,-100.00,NW,325,2.0,4.0,83,0.00,,,-99.99,0.000000,,2013-02-24 06:01:00,
2013-02-23 23:11:00,19.0,15.0,-100.00,NW,325,2.0,4.0,83,0.00,,,-99.99,0.000000,,2013-02-24 06:11:00,
2013-02-23 23:32:00,20.0,16.0,-100.00,NNW,337,2.0,4.0,85,0.00,,,0.07,0.000000,,2013-02-24 06:32:00,
2013-02-23 23:42:00,20.0,16.0,-100.00,NNW,337,2.0,4.0,85,0.00,,,0.07,0.000000,,2013-02-24 06:42:00,
2013-02-23 23:52:00,20.0,16.0,-100.00,NNW,337,2.0,4.0,85,0.00,,,0.07,0.000000,,2013-02-24 06:52:00,